Matinburg, Texas
Current Conditions -  °F | °C
As of 11:55 AM on Thursday 30 Oct 2014 (Local Time) from KOSA Reporting Station
Clear Clear  
Wind Chill: 70°   Ceiling: Unl
Heat Index: 70°   Visibility: 10mi
Dew Point: 44°   Wind: 6mph
Humidity: 40%   Direction: 160°SSE
Pressure: 30.19"   Gusts: NA
Location:  32.9352°N, 94.9553°W
Report Text: KOSA 301655Z AUTO 16005KT 10SM CLR 21/07 A3019 RMK AO1 T02110069
Loading
Personal Weather Stations






























Interactive Weather Map
Tropical Storm Tracking
New forecast layout! Learn more

10-Day Weather Forecast

Advertisements
Track Severe Weather on mobile